Time;durP1;ratioP1;P1;durP2;ratioP2;P2;SDS_P1;SDS_P2;PMS_P1;PMS_P2;Temp;Humidity;BMP_temperature;BMP_pressure;BME280_temperature;BME280_humidity;BME280_pressure;Samples;Min_cycle;Max_cycle;Signal;HPM_P1;HPM_P2
2023/01/23 00:00:44;;;;;;;18.73;13.70;;;6.10;99.90;;;;;;5051250;28;20552;-63
2023/01/23 00:03:12;;;;;;;17.90;13.95;;;6.20;99.90;;;;;;5051473;28;20238;-63
2023/01/23 00:05:38;;;;;;;21.77;14.82;;;6.20;99.90;;;;;;5033300;28;20212;-63
2023/01/23 00:08:04;;;;;;;18.40;14.23;;;6.10;99.90;;;;;;5035074;28;20216;-63
2023/01/23 00:10:30;;;;;;;19.70;15.07;;;6.10;99.90;;;;;;5052104;28;20391;-63
2023/01/23 00:12:56;;;;;;;20.90;15.83;;;6.10;99.90;;;;;;5048964;28;20912;-63
2023/01/23 00:15:22;;;;;;;23.47;16.57;;;6.10;99.90;;;;;;5052000;28;20453;-63
2023/01/23 00:17:48;;;;;;;19.60;14.70;;;6.10;99.90;;;;;;5051284;28;20436;-63
2023/01/23 00:20:14;;;;;;;19.23;14.77;;;6.10;99.90;;;;;;5051173;28;20181;-63
2023/01/23 00:22:39;;;;;;;18.40;14.80;;;6.10;99.90;;;;;;5051971;28;20204;-63
2023/01/23 00:25:06;;;;;;;18.93;15.27;;;6.10;99.90;;;;;;5051217;28;20177;-63
2023/01/23 00:27:31;;;;;;;16.85;13.70;;;6.10;99.90;;;;;;5051973;28;20178;-63
2023/01/23 00:29:57;;;;;;;20.33;15.10;;;6.10;99.90;;;;;;5045668;28;20256;-64
2023/01/23 00:32:23;;;;;;;19.00;15.23;;;6.20;99.90;;;;;;5051924;28;20178;-63
2023/01/23 00:34:49;;;;;;;18.90;15.70;;;6.20;99.90;;;;;;5051957;28;20200;-63
2023/01/23 00:37:18;;;;;;;18.77;14.37;;;6.20;99.90;;;;;;5051411;28;20831;-63
2023/01/23 00:39:44;;;;;;;21.17;15.60;;;6.20;99.90;;;;;;5050618;28;20479;-63
2023/01/23 00:42:11;;;;;;;19.50;15.43;;;6.20;99.90;;;;;;5051078;28;20222;-63
2023/01/23 00:44:37;;;;;;;20.15;15.65;;;6.20;99.90;;;;;;5049567;28;20664;-63
2023/01/23 00:47:02;;;;;;;19.50;16.00;;;6.10;99.90;;;;;;5051038;28;20179;-63
2023/01/23 00:49:29;;;;;;;18.27;14.53;;;5.90;99.90;;;;;;5050290;28;20407;-63
2023/01/23 00:51:55;;;;;;;23.05;15.35;;;5.90;99.90;;;;;;5050808;28;20221;-66
2023/01/23 00:54:23;;;;;;;23.50;15.60;;;5.90;99.90;;;;;;5055298;28;20187;-63
2023/01/23 00:56:48;;;;;;;20.15;15.05;;;5.90;99.90;;;;;;5054318;28;20510;-63
2023/01/23 00:59:14;;;;;;;19.57;15.27;;;5.70;99.90;;;;;;5052078;28;20189;-63
2023/01/23 01:01:40;;;;;;;23.57;15.90;;;5.60;99.90;;;;;;5053218;28;20186;-63
2023/01/23 01:04:06;;;;;;;21.13;14.87;;;5.70;99.90;;;;;;5054404;28;20209;-63
2023/01/23 01:06:31;;;;;;;20.90;15.00;;;5.80;99.90;;;;;;5054087;28;20193;-63
2023/01/23 01:08:58;;;;;;;22.77;15.50;;;5.70;99.90;;;;;;5054848;28;20182;-64
2023/01/23 01:11:25;;;;;;;21.60;16.00;;;5.80;99.90;;;;;;5054237;28;20819;-63
2023/01/23 01:13:51;;;;;;;18.08;14.40;;;5.70;99.90;;;;;;5055270;28;20177;-63
2023/01/23 01:16:17;;;;;;;22.60;15.43;;;5.60;99.90;;;;;;5054369;28;20177;-63
2023/01/23 01:18:43;;;;;;;22.02;15.00;;;5.50;99.90;;;;;;5055471;28;20436;-63
2023/01/23 01:21:12;;;;;;;19.95;14.75;;;5.60;99.90;;;;;;5054353;28;20508;-63
2023/01/23 01:23:38;;;;;;;22.15;15.68;;;5.60;99.90;;;;;;5054998;28;20255;-62
2023/01/23 01:26:05;;;;;;;21.52;14.75;;;5.70;99.90;;;;;;5035122;28;20205;-63
2023/01/23 01:28:32;;;;;;;21.48;15.73;;;5.70;99.90;;;;;;5035039;28;20179;-63
2023/01/23 01:31:06;;;;;;;17.95;13.95;;;5.70;99.90;;;;;;5046042;28;20210;-66
2023/01/23 01:33:33;;;;;;;22.30;15.35;;;5.80;99.90;;;;;;5054776;28;20162;-63
2023/01/23 01:35:59;;;;;;;20.15;14.13;;;5.90;99.90;;;;;;5054520;28;20202;-66
2023/01/23 01:38:25;;;;;;;18.75;13.98;;;5.90;99.90;;;;;;5054673;28;20170;-63
2023/01/23 01:40:51;;;;;;;19.70;14.27;;;5.90;99.90;;;;;;5054674;28;20309;-63
2023/01/23 01:43:23;;;;;;;21.23;14.33;;;5.90;99.90;;;;;;5052859;28;20268;-63
2023/01/23 01:46:21;;;;;;;19.17;14.20;;;6.00;99.90;;;;;;5054720;28;20503;-63
2023/01/23 01:48:56;;;;;;;20.98;14.27;;;6.10;99.90;;;;;;5053740;28;20593;-63
2023/01/23 01:51:30;;;;;;;19.47;14.60;;;6.10;99.90;;;;;;5053778;28;20212;-63
2023/01/23 01:54:15;;;;;;;18.65;13.90;;;6.10;99.90;;;;;;5053790;28;20506;-63
2023/01/23 01:57:14;;;;;;;18.90;14.00;;;6.10;99.90;;;;;;5054572;28;20193;-63
2023/01/23 01:59:56;;;;;;;18.17;13.35;;;6.10;99.90;;;;;;5053273;28;20159;-63
2023/01/23 02:02:32;;;;;;;16.75;12.75;;;6.10;99.90;;;;;;5050523;28;20201;-63
2023/01/23 02:05:01;;;;;;;17.52;13.82;;;6.00;99.90;;;;;;5053242;28;20166;-66
2023/01/23 02:07:39;;;;;;;17.40;13.82;;;6.00;99.90;;;;;;5052840;28;20178;-63
2023/01/23 02:10:07;;;;;;;19.15;15.18;;;6.00;99.90;;;;;;5053563;28;20268;-63
2023/01/23 02:12:34;;;;;;;17.17;13.82;;;6.00;99.90;;;;;;5054257;28;20174;-63
2023/01/23 02:15:02;;;;;;;19.73;14.25;;;6.10;99.90;;;;;;5053801;28;20167;-66
2023/01/23 02:17:29;;;;;;;17.85;14.70;;;6.10;99.90;;;;;;5054097;28;20189;-63
2023/01/23 02:20:19;;;;;;;17.60;13.35;;;6.10;99.90;;;;;;5052680;28;20194;-63
2023/01/23 02:23:04;;;;;;;16.15;13.57;;;6.20;99.90;;;;;;5050592;28;20229;-63
2023/01/23 02:25:40;;;;;;;17.30;13.90;;;6.20;99.90;;;;;;5053831;28;20172;-63
2023/01/23 02:28:06;;;;;;;20.30;14.95;;;6.20;99.90;;;;;;5053137;28;20163;-63
2023/01/23 02:30:32;;;;;;;18.83;15.10;;;6.10;99.90;;;;;;5052263;28;20200;-63
2023/01/23 02:33:23;;;;;;;19.60;14.40;;;6.20;99.90;;;;;;5053774;28;20452;-63
2023/01/23 02:35:49;;;;;;;18.27;13.63;;;6.20;99.90;;;;;;5053828;28;20205;-63
2023/01/23 02:38:19;;;;;;;17.67;13.10;;;6.20;99.90;;;;;;5049964;28;20444;-64
2023/01/23 02:40:45;;;;;;;17.20;14.25;;;6.20;99.90;;;;;;5053281;28;20530;-63
2023/01/23 02:43:15;;;;;;;18.87;14.50;;;6.30;99.90;;;;;;5052780;28;20658;-63
2023/01/23 02:45:40;;;;;;;19.63;14.45;;;6.30;99.90;;;;;;5052467;28;20171;-63
2023/01/23 02:48:07;;;;;;;18.57;14.83;;;6.30;99.90;;;;;;5052696;28;20182;-64
2023/01/23 02:50:34;;;;;;;19.30;14.98;;;6.30;99.90;;;;;;5053456;28;20179;-63
2023/01/23 02:52:59;;;;;;;17.48;13.90;;;6.30;99.90;;;;;;5053438;28;20189;-63
2023/01/23 02:55:28;;;;;;;18.57;14.97;;;6.30;99.90;;;;;;5052846;28;20178;-63
2023/01/23 03:00:14;;;;;;;21.00;15.02;;;6.30;99.90;;;;;;5052129;28;20442;-63
2023/01/23 03:00:45;;;;;;;15.32;13.20;;;6.40;99.90;;;;;;5052058;28;20228;-63
2023/01/23 03:03:11;;;;;;;19.95;14.00;;;6.30;99.90;;;;;;5052485;28;20206;-63
2023/01/23 03:05:37;;;;;;;18.93;14.30;;;6.30;99.90;;;;;;5051685;28;20194;-63
2023/01/23 03:08:03;;;;;;;17.25;13.70;;;6.20;99.90;;;;;;5051507;28;20421;-66
2023/01/23 03:10:29;;;;;;;20.83;14.95;;;6.10;99.90;;;;;;5052845;28;20220;-63
2023/01/23 03:13:00;;;;;;;16.92;13.90;;;6.00;99.90;;;;;;5053027;28;20280;-64
2023/01/23 03:15:27;;;;;;;16.75;14.25;;;6.00;99.90;;;;;;5051928;28;20175;-64
2023/01/23 03:17:53;;;;;;;19.27;13.83;;;6.10;99.90;;;;;;5052166;28;20185;-63
2023/01/23 03:20:22;;;;;;;16.42;13.45;;;6.10;99.90;;;;;;5051979;28;20409;-63
2023/01/23 03:22:48;;;;;;;18.20;14.02;;;6.10;99.90;;;;;;5052856;28;20244;-63
2023/01/23 03:25:14;;;;;;;15.87;13.50;;;6.10;99.90;;;;;;5049750;28;20194;-63
2023/01/23 03:27:40;;;;;;;19.60;14.25;;;6.10;99.90;;;;;;5048257;28;20834;-63
2023/01/23 03:30:12;;;;;;;18.80;14.20;;;6.10;99.90;;;;;;5031160;28;20185;-66
2023/01/23 03:32:39;;;;;;;19.05;14.88;;;6.10;99.90;;;;;;5035679;28;20602;-63
2023/01/23 03:35:06;;;;;;;17.55;14.63;;;6.10;99.90;;;;;;5050337;28;20178;-66
2023/01/23 03:37:32;;;;;;;19.23;14.77;;;6.10;99.90;;;;;;5051576;28;20174;-63
2023/01/23 03:42:42;;;;;;;19.52;13.57;;;6.20;99.90;;;;;;5052785;28;20199;-63
2023/01/23 03:45:08;;;;;;;17.87;13.50;;;6.10;99.90;;;;;;5051783;28;20610;-64
2023/01/23 03:47:34;;;;;;;16.53;13.50;;;6.00;99.90;;;;;;5051282;28;20408;-63
2023/01/23 03:50:00;;;;;;;18.30;14.47;;;6.00;99.90;;;;;;5052434;28;20427;-63
2023/01/23 03:52:25;;;;;;;14.40;12.53;;;6.10;99.90;;;;;;5051343;28;20552;-63
2023/01/23 03:54:51;;;;;;;17.30;14.03;;;6.10;99.90;;;;;;5049859;28;20227;-63
2023/01/23 03:57:17;;;;;;;18.40;13.03;;;6.10;99.90;;;;;;5051526;28;20231;-63
2023/01/23 03:59:43;;;;;;;19.20;13.70;;;6.10;99.90;;;;;;5052013;28;20174;-63
2023/01/23 04:02:09;;;;;;;21.63;14.97;;;6.10;99.90;;;;;;5051461;28;20416;-66
2023/01/23 04:04:35;;;;;;;19.63;14.87;;;6.20;99.90;;;;;;5051995;28;20547;-63
2023/01/23 04:07:02;;;;;;;17.65;14.15;;;6.20;99.90;;;;;;5052227;28;20428;-63
2023/01/23 04:09:28;;;;;;;18.08;13.10;;;6.00;99.90;;;;;;5050958;28;20178;-63
2023/01/23 04:11:55;;;;;;;17.48;14.20;;;5.70;99.90;;;;;;5052133;28;20216;-63
2023/01/23 04:14:22;;;;;;;20.90;14.50;;;5.50;99.90;;;;;;5051361;28;20184;-63
2023/01/23 04:16:48;;;;;;;20.58;15.27;;;5.60;99.90;;;;;;5047571;28;20174;-63
2023/01/23 04:19:14;;;;;;;18.97;14.77;;;5.70;99.90;;;;;;5051552;28;20591;-63
2023/01/23 04:21:39;;;;;;;18.17;13.60;;;5.80;99.90;;;;;;5052053;28;20185;-63
2023/01/23 04:24:05;;;;;;;21.53;14.53;;;5.80;99.90;;;;;;5050774;28;20205;-65
2023/01/23 04:26:33;;;;;;;19.30;13.73;;;5.80;99.90;;;;;;5031656;28;20197;-63
2023/01/23 04:28:59;;;;;;;17.42;14.52;;;5.80;99.90;;;;;;5036247;28;20821;-63
2023/01/23 04:31:24;;;;;;;20.30;14.30;;;5.70;99.90;;;;;;5035588;28;20201;-63
2023/01/23 04:33:50;;;;;;;17.83;13.97;;;5.80;99.90;;;;;;5035797;28;20178;-63
2023/01/23 04:36:16;;;;;;;19.20;13.67;;;5.80;99.90;;;;;;5042985;28;20228;-63
2023/01/23 04:38:41;;;;;;;19.20;13.33;;;5.80;99.90;;;;;;5055999;28;20268;-63
2023/01/23 04:41:08;;;;;;;20.83;15.23;;;5.90;99.90;;;;;;5055991;28;20225;-66
2023/01/23 04:43:34;;;;;;;21.40;14.32;;;5.90;99.90;;;;;;5055429;28;20642;-63
2023/01/23 04:46:00;;;;;;;15.27;12.30;;;5.90;99.90;;;;;;5055656;28;20661;-63
2023/01/23 04:48:26;;;;;;;18.57;13.03;;;6.00;99.90;;;;;;5055023;28;20178;-63
2023/01/23 04:50:52;;;;;;;16.87;12.53;;;6.00;99.90;;;;;;5055486;28;20256;-63
2023/01/23 04:53:17;;;;;;;15.90;12.57;;;6.00;99.90;;;;;;5054634;28;20209;-65
2023/01/23 04:55:46;;;;;;;15.00;11.70;;;6.00;99.90;;;;;;5052198;28;20186;-63
2023/01/23 04:58:12;;;;;;;18.65;13.77;;;5.90;99.90;;;;;;5053799;28;20190;-66
2023/01/23 05:00:38;;;;;;;19.23;13.67;;;5.80;99.90;;;;;;5052513;28;20178;-64
2023/01/23 05:03:04;;;;;;;17.30;12.77;;;5.90;99.90;;;;;;5055411;28;20216;-63
2023/01/23 05:05:30;;;;;;;18.80;12.82;;;5.80;99.90;;;;;;5053411;28;20174;-64
2023/01/23 05:07:56;;;;;;;17.90;13.80;;;5.90;99.90;;;;;;5055025;28;20251;-63
2023/01/23 05:10:22;;;;;;;16.37;12.80;;;5.90;99.90;;;;;;5053118;28;20288;-63
2023/01/23 05:12:48;;;;;;;19.00;14.80;;;5.90;99.90;;;;;;5054172;28;20657;-63
2023/01/23 05:15:14;;;;;;;17.43;13.33;;;5.90;99.90;;;;;;5053149;28;20402;-65
2023/01/23 05:17:39;;;;;;;20.63;14.05;;;5.90;99.90;;;;;;5054999;28;20181;-63
2023/01/23 05:20:06;;;;;;;16.97;12.70;;;5.90;99.90;;;;;;5054630;28;20280;-63
2023/01/23 05:22:32;;;;;;;18.25;12.45;;;5.90;99.90;;;;;;5051171;28;20497;-63
2023/01/23 05:24:58;;;;;;;17.00;13.02;;;5.90;99.90;;;;;;5053198;28;20272;-64
2023/01/23 05:27:24;;;;;;;20.45;13.40;;;5.90;99.90;;;;;;5054031;28;20285;-64
2023/01/23 05:29:49;;;;;;;17.40;11.70;;;6.00;99.90;;;;;;5054580;28;20674;-63
2023/01/23 05:32:15;;;;;;;16.37;11.50;;;5.90;99.90;;;;;;5054205;28;20195;-64
2023/01/23 05:34:41;;;;;;;19.77;13.70;;;5.90;99.90;;;;;;5053735;28;20178;-63
2023/01/23 05:37:06;;;;;;;17.20;12.40;;;6.00;99.90;;;;;;5054921;28;20182;-63
2023/01/23 05:39:32;;;;;;;19.10;13.17;;;6.00;99.90;;;;;;5054140;28;20762;-63
2023/01/23 05:41:58;;;;;;;18.27;12.97;;;6.00;99.90;;;;;;5054614;28;20359;-63
2023/01/23 05:44:24;;;;;;;15.37;11.90;;;6.00;99.90;;;;;;5052555;28;20304;-63
2023/01/23 05:46:49;;;;;;;15.17;10.73;;;6.00;99.90;;;;;;5045943;28;20187;-63
2023/01/23 05:49:15;;;;;;;15.83;11.37;;;6.00;99.90;;;;;;5053855;28;20174;-65
2023/01/23 05:51:41;;;;;;;16.70;11.73;;;6.00;99.90;;;;;;5053222;28;20177;-63
2023/01/23 05:54:06;;;;;;;15.83;12.60;;;6.00;99.90;;;;;;5053029;28;20185;-63
2023/01/23 05:56:32;;;;;;;15.40;11.63;;;6.00;99.90;;;;;;5047904;28;20174;-63
2023/01/23 05:58:58;;;;;;;18.40;12.57;;;6.00;99.90;;;;;;5053631;28;20174;-64
2023/01/23 06:01:24;;;;;;;15.27;11.30;;;6.00;99.90;;;;;;5051164;28;20232;-63
2023/01/23 06:03:49;;;;;;;16.30;12.18;;;6.00;99.90;;;;;;5050654;28;20213;-63
2023/01/23 06:06:15;;;;;;;17.77;12.73;;;6.00;99.90;;;;;;5052274;28;20248;-66
2023/01/23 06:08:41;;;;;;;15.80;12.10;;;6.00;99.90;;;;;;5054265;28;20265;-63
2023/01/23 06:11:07;;;;;;;15.00;11.37;;;6.00;99.90;;;;;;5053414;28;20182;-65
2023/01/23 06:13:32;;;;;;;19.10;12.77;;;6.10;99.90;;;;;;5040783;28;20605;-63
2023/01/23 06:15:58;;;;;;;14.23;11.30;;;6.00;99.90;;;;;;5051739;28;20650;-63
2023/01/23 06:18:24;;;;;;;15.50;12.37;;;6.00;99.90;;;;;;5053270;28;20173;-64
2023/01/23 06:20:55;;;;;;;17.37;13.60;;;6.20;99.90;;;;;;5049623;28;20192;-66
2023/01/23 06:23:21;;;;;;;16.05;12.73;;;6.10;99.90;;;;;;5045718;28;20202;-63
2023/01/23 06:25:47;;;;;;;13.63;11.00;;;6.10;99.90;;;;;;5053240;28;20274;-63
2023/01/23 06:28:13;;;;;;;17.73;13.50;;;6.10;99.90;;;;;;5054218;28;20614;-63
2023/01/23 06:30:38;;;;;;;17.83;13.98;;;6.10;99.90;;;;;;5050467;28;20188;-64
2023/01/23 06:33:04;;;;;;;18.53;13.37;;;6.10;99.90;;;;;;5041672;28;20187;-63
2023/01/23 06:35:30;;;;;;;16.30;12.97;;;6.10;99.90;;;;;;5052740;28;20170;-63
2023/01/23 06:37:55;;;;;;;20.30;13.57;;;6.10;99.90;;;;;;5050197;28;20204;-63
2023/01/23 06:40:21;;;;;;;17.77;13.00;;;6.10;99.90;;;;;;5044572;28;20242;-63
2023/01/23 06:42:47;;;;;;;14.87;11.53;;;5.90;99.90;;;;;;5052237;28;20202;-63
2023/01/23 06:45:13;;;;;;;15.93;13.03;;;6.00;99.90;;;;;;5051743;28;20213;-63
2023/01/23 06:47:38;;;;;;;17.17;12.93;;;6.00;99.90;;;;;;5053236;28;20178;-64
2023/01/23 06:50:04;;;;;;;18.33;12.93;;;6.00;99.90;;;;;;5044412;28;20214;-64
2023/01/23 06:52:32;;;;;;;17.27;12.35;;;6.00;99.90;;;;;;5043278;28;20701;-64
2023/01/23 06:54:58;;;;;;;18.27;11.83;;;6.10;99.90;;;;;;5050236;28;20202;-64
2023/01/23 06:57:24;;;;;;;16.73;11.87;;;6.10;99.90;;;;;;5033196;28;20218;-64
2023/01/23 06:59:49;;;;;;;15.63;11.60;;;6.10;99.90;;;;;;5041164;28;20274;-63
2023/01/23 07:02:15;;;;;;;16.03;12.60;;;6.10;99.90;;;;;;5037105;28;20189;-67
2023/01/23 07:04:41;;;;;;;18.13;13.40;;;6.20;99.90;;;;;;5035721;28;20190;-63
2023/01/23 07:07:06;;;;;;;17.60;13.43;;;6.10;99.90;;;;;;5045939;28;20209;-63
2023/01/23 07:09:33;;;;;;;18.00;12.10;;;6.10;99.90;;;;;;5043967;28;20182;-63
2023/01/23 07:11:58;;;;;;;17.98;13.80;;;6.10;99.90;;;;;;5063006;28;20627;-62
2023/01/23 07:14:26;;;;;;;22.57;13.40;;;6.10;99.90;;;;;;5052859;28;20209;-63
2023/01/23 07:16:53;;;;;;;20.42;14.35;;;6.10;99.90;;;;;;5053169;28;20197;-62
2023/01/23 07:19:19;;;;;;;16.80;13.70;;;6.10;99.90;;;;;;5049775;28;20182;-66
2023/01/23 07:21:47;;;;;;;19.77;13.70;;;6.10;99.90;;;;;;5050663;28;20189;-63
2023/01/23 07:24:13;;;;;;;19.17;13.15;;;6.10;99.90;;;;;;5049954;28;20233;-64
2023/01/23 07:26:39;;;;;;;18.97;13.80;;;6.10;99.90;;;;;;5051378;28;20174;-63
2023/01/23 07:29:07;;;;;;;21.73;15.27;;;6.10;99.90;;;;;;5046383;28;20192;-66
2023/01/23 07:31:34;;;;;;;21.60;16.27;;;6.40;99.90;;;;;;5037035;28;20503;-66
2023/01/23 07:34:00;;;;;;;21.60;16.20;;;7.20;99.90;;;;;;5039164;28;20768;-66
2023/01/23 07:36:27;;;;;;;19.70;15.50;;;8.00;99.90;;;;;;5049607;28;20468;-66
2023/01/23 07:38:54;;;;;;;19.30;14.30;;;8.70;99.90;;;;;;5036987;28;20498;-66
2023/01/23 07:41:20;;;;;;;15.30;13.10;;;9.30;99.90;;;;;;5038517;28;20980;-68
2023/01/23 07:43:46;;;;;;;23.33;16.77;;;9.90;99.90;;;;;;5037102;28;20491;-65
2023/01/23 07:46:12;;;;;;;19.90;17.27;;;10.30;99.90;;;;;;5044667;28;20443;-66
2023/01/23 07:48:37;;;;;;;21.70;15.17;;;10.70;99.90;;;;;;5032331;28;20429;-66
2023/01/23 07:51:04;;;;;;;23.50;18.23;;;10.90;99.90;;;;;;5033057;28;20646;-66
2023/01/23 07:53:30;;;;;;;16.60;14.27;;;11.20;99.90;;;;;;5046725;28;20178;-65
2023/01/23 07:55:56;;;;;;;20.27;16.00;;;11.60;99.90;;;;;;5050874;28;20952;-64
2023/01/23 07:58:22;;;;;;;19.50;16.00;;;11.70;98.50;;;;;;5051104;28;20483;-64
2023/01/23 08:00:48;;;;;;;18.87;15.93;;;11.90;97.10;;;;;;5055122;28;20177;-64
2023/01/23 08:03:13;;;;;;;21.47;16.43;;;12.00;99.90;;;;;;5067047;28;20198;-65
2023/01/23 08:05:39;;;;;;;18.50;14.70;;;12.20;99.90;;;;;;5069185;28;20463;-65
2023/01/23 08:08:05;;;;;;;18.10;14.33;;;12.40;99.90;;;;;;5060202;28;20211;-65
2023/01/23 08:10:31;;;;;;;16.70;14.27;;;12.50;95.90;;;;;;5052239;28;20218;-65
2023/01/23 08:12:57;;;;;;;19.30;16.30;;;12.60;95.00;;;;;;5054053;28;20969;-65
2023/01/23 08:15:22;;;;;;;17.80;15.10;;;12.60;98.50;;;;;;5055065;28;20182;-65
2023/01/23 08:17:48;;;;;;;16.37;14.60;;;12.60;99.30;;;;;;5052277;28;20260;-65
2023/01/23 08:20:14;;;;;;;17.00;14.07;;;12.80;99.90;;;;;;5068625;28;20632;-65
2023/01/23 08:22:40;;;;;;;16.67;14.60;;;12.90;94.80;;;;;;5053091;28;20838;-65
2023/01/23 08:25:08;;;;;;;15.97;13.50;;;13.00;92.00;;;;;;5052389;28;20408;-65
2023/01/23 08:27:34;;;;;;;16.93;13.83;;;12.90;92.20;;;;;;5050811;28;20642;-64
2023/01/23 08:30:00;;;;;;;16.93;12.90;;;12.70;90.40;;;;;;5052475;28;20491;-63
2023/01/23 08:32:26;;;;;;;16.27;13.33;;;12.30;89.70;;;;;;5050355;28;20441;-63
2023/01/23 08:34:51;;;;;;;15.63;14.07;;;11.80;90.10;;;;;;5068273;28;20641;-63
2023/01/23 08:37:17;;;;;;;17.20;14.57;;;11.30;90.70;;;;;;5072305;28;20186;-63
2023/01/23 08:39:45;;;;;;;17.90;14.10;;;10.70;92.70;;;;;;5071912;28;20258;-63
2023/01/23 08:42:11;;;;;;;18.27;14.13;;;10.20;93.90;;;;;;5070924;28;20228;-63
2023/01/23 08:44:37;;;;;;;14.43;12.10;;;9.70;96.20;;;;;;5071577;28;20475;-63
2023/01/23 08:47:03;;;;;;;18.73;13.70;;;9.30;99.10;;;;;;5071979;28;20628;-62
2023/01/23 08:49:28;;;;;;;19.73;13.70;;;8.80;99.90;;;;;;5063219;28;20316;-63
2023/01/23 08:51:55;;;;;;;16.77;14.17;;;8.40;99.90;;;;;;5051848;28;20913;-63
2023/01/23 08:54:21;;;;;;;16.67;13.00;;;8.30;99.90;;;;;;5048205;28;20199;-63
2023/01/23 08:56:47;;;;;;;20.40;13.93;;;7.90;99.90;;;;;;5049024;28;20779;-63
2023/01/23 08:59:12;;;;;;;18.50;13.50;;;7.80;99.90;;;;;;5051806;28;20488;-62
2023/01/23 09:01:38;;;;;;;16.83;13.30;;;7.50;99.90;;;;;;5051137;28;20234;-63
2023/01/23 09:04:04;;;;;;;15.77;13.10;;;7.30;99.90;;;;;;5051431;28;20198;-63
2023/01/23 09:06:29;;;;;;;18.27;12.80;;;7.20;99.90;;;;;;5050775;28;20187;-63
2023/01/23 09:08:55;;;;;;;17.60;12.77;;;7.10;99.90;;;;;;5049065;28;20190;-63
2023/01/23 09:11:22;;;;;;;16.27;13.17;;;7.00;99.90;;;;;;5048332;28;20238;-64
2023/01/23 09:13:48;;;;;;;16.13;13.13;;;7.00;99.90;;;;;;5050106;28;20417;-64
2023/01/23 09:16:14;;;;;;;16.63;12.50;;;7.00;99.90;;;;;;5051800;28;20470;-63
2023/01/23 09:18:40;;;;;;;16.87;12.40;;;6.90;99.90;;;;;;5051503;28;20467;-63
2023/01/23 09:21:12;;;;;;;15.20;11.30;;;6.80;99.90;;;;;;5055557;28;20409;-63
2023/01/23 09:23:38;;;;;;;15.35;12.15;;;6.80;99.90;;;;;;5054804;28;20622;-63
2023/01/23 09:26:08;;;;;;;15.50;12.13;;;6.80;99.90;;;;;;5047426;28;20543;-63
2023/01/23 09:28:37;;;;;;;17.67;14.32;;;6.70;99.90;;;;;;5050290;28;20430;-63
2023/01/23 09:31:08;;;;;;;17.27;13.32;;;6.70;99.90;;;;;;5055130;28;20565;-63
2023/01/23 09:33:34;;;;;;;18.57;14.67;;;6.70;99.90;;;;;;5054810;28;20273;-63
2023/01/23 09:36:00;;;;;;;19.23;16.02;;;6.70;99.90;;;;;;5052818;28;20425;-63
2023/01/23 09:38:26;;;;;;;15.80;11.80;;;6.60;99.90;;;;;;5054783;28;20259;-63
2023/01/23 09:40:55;;;;;;;16.00;10.57;;;6.70;99.90;;;;;;5055419;28;20437;-63
2023/01/23 09:43:29;;;;;;;14.83;11.00;;;6.70;99.90;;;;;;5053852;28;20214;-63
2023/01/23 09:46:07;;;;;;;15.87;13.63;;;6.80;99.90;;;;;;5055269;28;20774;-63
2023/01/23 09:48:42;;;;;;;22.30;15.75;;;6.80;99.90;;;;;;5054732;28;20419;-63
2023/01/23 09:51:11;;;;;;;16.63;13.40;;;6.90;99.90;;;;;;5055073;28;20172;-63
2023/01/23 09:53:39;;;;;;;16.17;14.10;;;6.90;99.90;;;;;;5054358;28;20426;-63
2023/01/23 09:56:26;;;;;;;14.53;11.90;;;6.80;99.90;;;;;;5054956;28;20454;-63
2023/01/23 09:59:07;;;;;;;16.00;12.73;;;6.80;99.90;;;;;;5054769;28;20417;-63
2023/01/23 10:01:32;;;;;;;14.80;13.20;;;6.80;99.90;;;;;;5054263;28;20497;-64
2023/01/23 10:04:00;;;;;;;16.10;12.80;;;6.70;99.90;;;;;;5055225;28;20560;-64
2023/01/23 10:06:31;;;;;;;14.47;11.10;;;6.80;99.90;;;;;;5052937;28;20239;-67
2023/01/23 10:09:26;;;;;;;15.60;11.00;;;6.70;99.90;;;;;;5051029;28;20414;-64
2023/01/23 10:12:07;;;;;;;14.83;12.73;;;6.70;99.90;;;;;;5053956;28;20445;-64
2023/01/23 10:14:57;;;;;;;13.50;12.10;;;6.70;99.90;;;;;;5052900;28;20917;-64
2023/01/23 10:17:35;;;;;;;13.67;10.83;;;6.70;99.90;;;;;;5054597;28;20467;-63
2023/01/23 10:20:29;;;;;;;13.25;10.65;;;6.70;99.90;;;;;;5054615;28;20410;-64
2023/01/23 10:23:29;;;;;;;13.10;10.97;;;6.70;99.90;;;;;;5054391;28;20218;-64
2023/01/23 10:25:54;;;;;;;15.05;11.18;;;6.70;99.90;;;;;;5053536;28;20798;-64
2023/01/23 10:28:38;;;;;;;15.20;12.33;;;6.70;99.90;;;;;;5054088;28;20175;-64
2023/01/23 10:31:21;;;;;;;13.70;10.40;;;6.70;99.90;;;;;;5052513;28;20470;-63
2023/01/23 10:33:56;;;;;;;13.67;10.10;;;6.80;99.90;;;;;;5048338;28;20436;-63
2023/01/23 10:36:48;;;;;;;12.27;10.15;;;6.70;99.90;;;;;;5053075;28;20749;-64
2023/01/23 10:39:28;;;;;;;14.00;11.70;;;6.80;99.90;;;;;;5046472;28;20195;-63
2023/01/23 10:41:54;;;;;;;12.33;8.97;;;6.70;99.90;;;;;;5052852;28;20279;-63
2023/01/23 10:44:21;;;;;;;12.40;10.10;;;6.70;99.90;;;;;;5053935;28;20530;-63
2023/01/23 10:46:53;;;;;;;14.80;11.70;;;6.70;99.90;;;;;;5053389;28;20183;-63
2023/01/23 10:49:35;;;;;;;14.13;10.90;;;6.70;99.90;;;;;;5054021;28;20398;-64
2023/01/23 10:52:01;;;;;;;14.47;12.97;;;6.70;99.90;;;;;;5051558;28;20460;-63
2023/01/23 10:54:29;;;;;;;15.00;11.55;;;6.70;99.90;;;;;;5053322;28;20427;-63
2023/01/23 10:56:57;;;;;;;14.97;12.20;;;6.80;99.90;;;;;;5053813;28;20581;-63
2023/01/23 10:59:28;;;;;;;13.57;10.77;;;6.80;99.90;;;;;;5050223;28;20437;-63
2023/01/23 11:02:02;;;;;;;13.03;10.63;;;6.80;99.90;;;;;;5053881;28;20417;-64
2023/01/23 11:04:30;;;;;;;15.13;12.70;;;6.80;99.90;;;;;;5066897;28;20539;-64
2023/01/23 11:07:18;;;;;;;13.70;12.10;;;6.90;99.90;;;;;;5071498;28;20409;-63
2023/01/23 11:09:52;;;;;;;14.43;12.57;;;6.90;99.90;;;;;;5054351;28;20262;-64
2023/01/23 11:12:29;;;;;;;14.10;11.20;;;6.90;99.90;;;;;;5052042;28;20399;-64
2023/01/23 11:15:21;;;;;;;14.83;11.83;;;7.00;99.90;;;;;;5044824;28;20183;-65
2023/01/23 11:17:48;;;;;;;13.70;12.20;;;7.00;99.90;;;;;;5051761;28;20433;-64
2023/01/23 11:20:29;;;;;;;14.30;11.23;;;7.10;99.90;;;;;;5048011;28;20457;-64
2023/01/23 11:23:18;;;;;;;12.00;10.03;;;7.00;99.90;;;;;;5033616;28;20421;-64
2023/01/23 11:25:47;;;;;;;16.13;11.23;;;6.90;99.90;;;;;;5047311;28;20834;-65
2023/01/23 11:28:23;;;;;;;16.53;12.47;;;6.90;99.90;;;;;;5049593;28;20434;-65
2023/01/23 11:31:14;;;;;;;14.60;12.23;;;6.90;99.90;;;;;;5051366;28;20453;-64
2023/01/23 11:33:53;;;;;;;14.67;11.70;;;6.80;99.90;;;;;;5051089;28;20459;-65
2023/01/23 11:36:19;;;;;;;14.73;12.00;;;6.80;99.90;;;;;;5047173;28;20436;-65
2023/01/23 11:38:57;;;;;;;14.73;12.80;;;6.90;99.90;;;;;;5045126;28;20434;-63
2023/01/23 11:41:29;;;;;;;15.13;11.80;;;6.80;99.90;;;;;;5049763;28;20244;-63
2023/01/23 11:43:55;;;;;;;15.60;12.63;;;6.70;99.90;;;;;;5049546;28;21153;-63
2023/01/23 11:46:44;;;;;;;15.20;12.80;;;6.60;99.90;;;;;;5052531;28;20509;-63
2023/01/23 11:49:49;;;;;;;16.40;12.87;;;6.70;99.90;;;;;;5052697;28;20185;-63
2023/01/23 11:52:33;;;;;;;15.80;12.73;;;6.70;99.90;;;;;;5052488;28;20373;-63
2023/01/23 11:55:17;;;;;;;15.53;12.40;;;6.70;99.90;;;;;;5053074;28;20376;-64
2023/01/23 11:57:52;;;;;;;17.50;13.73;;;6.70;99.90;;;;;;5051166;28;20414;-63
2023/01/23 12:00:27;;;;;;;15.02;11.68;;;6.60;99.90;;;;;;5048936;28;20441;-64
2023/01/23 12:03:13;;;;;;;14.97;11.00;;;6.60;99.90;;;;;;5069016;28;20342;-64
2023/01/23 12:05:50;;;;;;;15.70;12.27;;;6.70;99.90;;;;;;5039809;28;20465;-64
2023/01/23 12:08:56;;;;;;;15.40;12.68;;;6.70;99.90;;;;;;5052554;28;20453;-63
2023/01/23 12:11:24;;;;;;;16.83;12.80;;;6.70;99.90;;;;;;5047356;28;20250;-64
2023/01/23 12:14:06;;;;;;;15.53;10.90;;;6.70;99.90;;;;;;5050749;28;20494;-64
2023/01/23 12:16:52;;;;;;;17.05;12.75;;;6.60;99.90;;;;;;5051746;28;20452;-64
2023/01/23 12:20:05;;;;;;;18.17;13.20;;;6.60;99.90;;;;;;5051769;28;20272;-63
2023/01/23 12:22:50;;;;;;;16.90;12.50;;;6.60;99.90;;;;;;5049177;28;20190;-64
2023/01/23 12:25:36;;;;;;;16.40;12.50;;;6.60;99.90;;;;;;5052494;28;20406;-63
2023/01/23 12:28:29;;;;;;;14.45;11.43;;;6.70;99.90;;;;;;5048631;28;20412;-63
2023/01/23 12:31:14;;;;;;;15.97;12.53;;;6.70;99.90;;;;;;5042408;28;20191;-63
2023/01/23 12:33:42;;;;;;;16.73;13.73;;;6.70;99.90;;;;;;5050904;28;20536;-63
2023/01/23 12:36:35;;;;;;;15.37;13.47;;;6.70;99.90;;;;;;5051627;28;20415;-63
2023/01/23 12:39:37;;;;;;;16.03;13.90;;;6.80;99.90;;;;;;5052398;28;20484;-63
2023/01/23 12:42:18;;;;;;;15.10;13.50;;;6.70;99.90;;;;;;5032596;28;20470;-64
2023/01/23 12:44:55;;;;;;;14.70;12.40;;;6.80;99.90;;;;;;5031689;28;20206;-64
2023/01/23 12:47:33;;;;;;;16.27;12.13;;;6.80;99.90;;;;;;5047386;28;20439;-64
2023/01/23 12:50:15;;;;;;;14.97;12.30;;;6.80;99.90;;;;;;5055633;28;20260;-64
2023/01/23 12:52:51;;;;;;;14.30;12.20;;;6.80;99.90;;;;;;5055626;28;20413;-64